createdAt,value
2018-09-24T00:00:31.236Z,96121.13
2018-09-24T00:03:06.389Z,96133.45
2018-09-24T00:05:41.072Z,96141.09
2018-09-24T00:08:15.758Z,96142.08
2018-09-24T00:10:50.302Z,96147.80
2018-09-24T00:13:24.874Z,96156.84
2018-09-24T00:15:59.877Z,96154.75
2018-09-24T00:18:34.669Z,96152.95
2018-09-24T00:21:09.336Z,96153.91
2018-09-24T00:23:44.492Z,96153.87
2018-09-24T00:26:19.218Z,96145.28
2018-09-24T00:28:54.272Z,96155.02
2018-09-24T00:31:28.769Z,96137.94
2018-09-24T00:34:03.967Z,96140.38
2018-09-24T00:36:39.170Z,96134.98
2018-09-24T00:39:13.806Z,96134.34
2018-09-24T00:41:48.907Z,96132.55
2018-09-24T00:44:23.625Z,96149.84
2018-09-24T00:46:58.337Z,96142.36
2018-09-24T00:49:32.907Z,96149.20
2018-09-24T00:52:07.803Z,96152.13
2018-09-24T00:54:42.763Z,96161.89
2018-09-24T00:57:17.554Z,96172.94
2018-09-24T00:59:52.689Z,96167.76
2018-09-24T01:02:27.240Z,96187.28
2018-09-24T01:05:01.787Z,96205.48
2018-09-24T01:07:37.382Z,96208.58
2018-09-24T01:10:12.313Z,96216.36
2018-09-24T01:12:47.222Z,96222.53
2018-09-24T01:15:22.052Z,96220.59
2018-09-24T01:17:56.649Z,96224.98
2018-09-24T01:20:31.361Z,96230.66
2018-09-24T01:23:06.230Z,96231.95
2018-09-24T01:25:40.918Z,96235.06
2018-09-24T01:28:16.562Z,96244.94
2018-09-24T01:30:51.036Z,96253.08
2018-09-24T01:33:25.599Z,96248.51
2018-09-24T01:36:00.181Z,96253.08
2018-09-24T01:38:34.697Z,96258.27
2018-09-24T01:41:09.403Z,96258.59
2018-09-24T01:43:44.090Z,96252.11
2018-09-24T01:46:18.420Z,96280.34
2018-09-24T01:48:52.953Z,96268.50
2018-09-24T01:51:35.240Z,96268.02
2018-09-24T01:54:09.796Z,96272.08
2018-09-24T01:56:44.305Z,96279.70
2018-09-24T01:59:19.093Z,96278.39
2018-09-24T02:01:53.454Z,96283.25
2018-09-24T02:04:28.243Z,96283.61
2018-09-24T02:07:02.649Z,96290.23
2018-09-24T02:09:37.091Z,96284.07
2018-09-24T02:12:12.074Z,96293.33
2018-09-24T02:14:47.045Z,96291.05
2018-09-24T02:17:26.423Z,96312.94
2018-09-24T02:20:01.309Z,96310.13
2018-09-24T02:22:35.872Z,96319.16
2018-09-24T02:25:10.800Z,96320.77
2018-09-24T02:27:45.261Z,96325.64
2018-09-24T02:30:20.785Z,96332.94
2018-09-24T02:32:55.344Z,96334.06
2018-09-24T02:35:29.824Z,96338.30
2018-09-24T02:38:04.365Z,96338.95
2018-09-24T02:40:38.944Z,96340.17
2018-09-24T02:43:14.028Z,96342.20
2018-09-24T02:45:48.548Z,96348.75
2018-09-24T02:48:23.660Z,96351.98
2018-09-24T02:50:58.220Z,96359.31
2018-09-24T02:53:39.579Z,96356.39
2018-09-24T02:56:14.573Z,96363.47
2018-09-24T02:58:48.882Z,96373.29
2018-09-24T03:01:23.300Z,96375.20
2018-09-24T03:03:58.352Z,96386.31
2018-09-24T03:06:34.197Z,96384.82
2018-09-24T03:09:13.965Z,96394.82
2018-09-24T03:11:48.617Z,96393.06
2018-09-24T03:14:27.109Z,96401.73
2018-09-24T03:17:01.593Z,96402.70
2018-09-24T03:19:36.116Z,96408.34
2018-09-24T03:22:10.985Z,96415.40
2018-09-24T03:24:45.462Z,96420.44
2018-09-24T03:27:20.614Z,96420.77
2018-09-24T03:29:55.012Z,96427.23
2018-09-24T03:32:29.377Z,96434.98
2018-09-24T03:35:04.584Z,96428.86
2018-09-24T03:37:39.616Z,96433.27
2018-09-24T03:40:14.775Z,96425.49
2018-09-24T03:42:49.551Z,96431.52
2018-09-24T03:45:23.969Z,96424.68
2018-09-24T03:47:59.727Z,96432.46
2018-09-24T03:50:35.230Z,96442.64
2018-09-24T03:53:09.800Z,96454.27
2018-09-24T03:55:47.494Z,96452.56
2018-09-24T03:58:22.960Z,96449.41
2018-09-24T04:00:57.364Z,96454.75
2018-09-24T04:03:31.927Z,96456.06
2018-09-24T04:06:11.565Z,96455.81
2018-09-24T04:08:51.671Z,96455.00
2018-09-24T04:11:32.126Z,96455.94
2018-09-24T04:14:12.002Z,96471.59
2018-09-24T04:16:51.777Z,96490.26
2018-09-24T04:19:32.267Z,96501.98
2018-09-24T04:22:12.260Z,96507.05
2018-09-24T04:24:52.705Z,96519.44
2018-09-24T04:27:39.752Z,96525.47
2018-09-24T04:30:19.732Z,96538.11
2018-09-24T04:32:59.667Z,96541.12
2018-09-24T04:35:39.865Z,96549.86
2018-09-24T04:38:19.681Z,96557.13
2018-09-24T04:40:59.941Z,96554.13
2018-09-24T04:43:39.746Z,96557.27
2018-09-24T04:46:29.505Z,96565.95
2018-09-24T04:49:09.601Z,96571.72
2018-09-24T04:51:49.851Z,96574.09
2018-09-24T04:54:29.647Z,96580.50
2018-09-24T04:57:09.989Z,96588.49
2018-09-24T04:59:49.821Z,96597.84
2018-09-24T05:02:30.115Z,96598.28
2018-09-24T05:05:10.488Z,96604.31
2018-09-24T05:07:50.601Z,96614.06
2018-09-24T05:10:31.405Z,96619.02
2018-09-24T05:13:14.452Z,96619.84
2018-09-24T05:15:54.247Z,96630.66
2018-09-24T05:18:34.489Z,96645.67
2018-09-24T05:21:14.530Z,96646.70
2018-09-24T05:23:54.132Z,96644.72
2018-09-24T05:26:33.948Z,96649.06
2018-09-24T05:29:13.516Z,96659.66
2018-09-24T05:31:53.369Z,96659.19
2018-09-24T05:34:33.787Z,96672.37
2018-09-24T05:37:13.922Z,96675.35
2018-09-24T05:39:54.275Z,96684.08
2018-09-24T05:42:34.225Z,96690.86
2018-09-24T05:45:14.137Z,96680.79
2018-09-24T05:47:54.286Z,96688.05
2018-09-24T05:50:34.164Z,96701.51
2018-09-24T05:53:13.948Z,96700.58
2018-09-24T05:55:54.374Z,96707.84
2018-09-24T05:58:34.273Z,96708.89
2018-09-24T06:01:14.431Z,96721.98
2018-09-24T06:03:54.444Z,96732.63
2018-09-24T06:06:34.293Z,96737.09
2018-09-24T06:09:14.370Z,96742.89
2018-09-24T06:11:54.719Z,96741.23
2018-09-24T06:14:34.593Z,96747.94
2018-09-24T06:17:14.427Z,96755.66
2018-09-24T06:19:54.149Z,96757.36
2018-09-24T06:22:33.952Z,96768.59
2018-09-24T06:25:13.768Z,96767.59
2018-09-24T06:27:53.748Z,96772.83
2018-09-24T06:30:33.831Z,96784.87
2018-09-24T06:33:13.710Z,96789.66
2018-09-24T06:35:53.621Z,96791.77
2018-09-24T06:38:33.504Z,96796.84
2018-09-24T06:41:13.149Z,96805.16
2018-09-24T06:43:53.455Z,96809.75
2018-09-24T06:46:34.103Z,96821.27
2018-09-24T06:49:14.004Z,96818.05
2018-09-24T06:51:54.224Z,96833.70
2018-09-24T06:54:34.072Z,96832.76
2018-09-24T06:57:14.297Z,96838.41
2018-09-24T06:59:53.898Z,96841.98
2018-09-24T07:02:33.624Z,96855.30
2018-09-24T07:05:13.509Z,96862.31
2018-09-24T07:07:53.323Z,96867.02
2018-09-24T07:10:33.516Z,96875.25
2018-09-24T07:13:13.355Z,96875.69
2018-09-24T07:15:53.146Z,96886.10
2018-09-24T07:18:33.228Z,96891.94
2018-09-24T07:21:13.157Z,96898.14
2018-09-24T07:23:53.053Z,96897.73
2018-09-24T07:26:33.164Z,96889.72
2018-09-24T07:29:13.052Z,96903.39
2018-09-24T07:31:52.688Z,96902.47
2018-09-24T07:34:32.309Z,96909.23
2018-09-24T07:37:12.572Z,96920.86
2018-09-24T07:39:52.368Z,96923.55
2018-09-24T07:42:32.504Z,96922.11
2018-09-24T07:45:12.673Z,96932.81
2018-09-24T07:47:52.619Z,96937.52
2018-09-24T07:50:32.526Z,96931.10
2018-09-24T07:53:12.353Z,96929.46
2018-09-24T07:55:52.204Z,96933.77
2018-09-24T07:58:32.224Z,96940.93
2018-09-24T08:01:12.417Z,96948.77
2018-09-24T08:03:52.677Z,96953.16
2018-09-24T08:06:33.035Z,96959.56
2018-09-24T08:09:13.128Z,96967.83
2018-09-24T08:11:52.930Z,96961.35
2018-09-24T08:14:32.868Z,96966.03
2018-09-24T08:17:12.681Z,96958.14
2018-09-24T08:19:52.517Z,96981.13
2018-09-24T08:22:32.452Z,96981.16
2018-09-24T08:25:12.365Z,96989.75
2018-09-24T08:27:52.451Z,96984.55
2018-09-24T08:30:32.427Z,96990.03
2018-09-24T08:33:12.664Z,96987.03
2018-09-24T08:35:52.912Z,96988.96
2018-09-24T08:38:32.857Z,96989.77
2018-09-24T08:41:12.582Z,96983.77
2018-09-24T08:43:52.580Z,96985.81
2018-09-24T08:46:32.618Z,96989.63
2018-09-24T08:49:13.232Z,96997.83
2018-09-24T08:51:53.048Z,96990.07
2018-09-24T08:54:32.868Z,96991.02
2018-09-24T08:57:13.597Z,96998.14
2018-09-24T08:59:53.553Z,96994.70
2018-09-24T09:02:34.021Z,97004.28
2018-09-24T09:05:14.109Z,97014.23
2018-09-24T09:07:53.942Z,97005.87
2018-09-24T09:10:33.791Z,97000.65
2018-09-24T09:13:13.628Z,96993.34
2018-09-24T09:15:53.485Z,96998.44
2018-09-24T09:18:33.278Z,97006.56
2018-09-24T09:21:13.020Z,97013.48
2018-09-24T09:23:53.274Z,97021.80
2018-09-24T09:26:33.375Z,97022.55
2018-09-24T09:29:13.216Z,97025.51
2018-09-24T09:31:53.698Z,97009.33
2018-09-24T09:34:33.909Z,97014.67
2018-09-24T09:37:13.934Z,97023.33
2018-09-24T09:39:53.639Z,97022.27
2018-09-24T09:42:33.320Z,97024.59
2018-09-24T09:45:13.746Z,97028.87
2018-09-24T09:47:53.687Z,97028.87
2018-09-24T09:50:33.655Z,97030.20
2018-09-24T09:53:13.746Z,97020.52
2018-09-24T09:55:53.552Z,97017.07
2018-09-24T09:58:34.201Z,97010.76
2018-09-24T10:01:14.294Z,97011.25
2018-09-24T10:03:54.135Z,97014.47
2018-09-24T10:06:34.058Z,97012.14
2018-09-24T10:09:14.360Z,97007.97
2018-09-24T10:11:54.259Z,97015.11
2018-09-24T10:14:34.324Z,97015.44
2018-09-24T10:17:14.265Z,97018.59
2018-09-24T10:19:53.915Z,97019.41
2018-09-24T10:22:33.683Z,97016.83
2018-09-24T10:25:14.081Z,97023.30
2018-09-24T10:27:54.006Z,97019.41
2018-09-24T10:30:33.922Z,97027.67
2018-09-24T10:33:13.602Z,97043.52
2018-09-24T10:35:53.789Z,97037.17
2018-09-24T10:38:33.687Z,97048.91
2018-09-24T10:41:13.645Z,97041.38
2018-09-24T10:43:53.788Z,97050.37
2018-09-24T10:46:33.625Z,97044.27
2018-09-24T10:49:13.389Z,97039.05
2018-09-24T10:51:53.589Z,97035.74
2018-09-24T10:54:33.072Z,97045.70
2018-09-24T10:57:13.212Z,97042.87
2018-09-24T10:59:53.074Z,97038.47
2018-09-24T11:02:33.062Z,97029.99
2018-09-24T11:05:13.364Z,97027.45
2018-09-24T11:07:53.130Z,97041.73
2018-09-24T11:10:32.940Z,97033.70
2018-09-24T11:13:13.305Z,97026.56
2018-09-24T11:15:53.564Z,97031.64
2018-09-24T11:18:33.619Z,97028.94
2018-09-24T11:21:13.689Z,97021.70
2018-09-24T11:23:53.739Z,97023.45
2018-09-24T11:29:12.953Z,97008.81
2018-09-24T11:31:52.928Z,97015.61
2018-09-24T11:34:32.704Z,97027.70
2018-09-24T11:37:12.541Z,97004.13
2018-09-24T11:39:52.281Z,97012.58
2018-09-24T11:42:32.243Z,97016.44
2018-09-24T11:45:12.595Z,97019.09
2018-09-24T11:47:52.892Z,97015.03
2018-09-24T11:50:32.547Z,97015.52
2018-09-24T11:53:12.513Z,97022.80
2018-09-24T11:55:52.336Z,97020.87
2018-09-24T11:58:32.614Z,97028.42
2018-09-24T12:01:12.733Z,97018.12
2018-09-24T12:03:52.766Z,97013.73
2018-09-24T12:06:33.017Z,97026.84
2018-09-24T12:09:14.504Z,97022.20
2018-09-24T12:11:54.293Z,97027.03
2018-09-24T12:14:33.971Z,97034.61
2018-09-24T12:17:13.907Z,97024.08
2018-09-24T12:19:54.053Z,97007.89
2018-09-24T12:22:33.889Z,97028.55
2018-09-24T12:25:13.180Z,97034.16
2018-09-24T12:27:52.965Z,97023.93
2018-09-24T12:30:32.517Z,97028.28
2018-09-24T12:33:12.553Z,97027.44
2018-09-24T12:35:52.220Z,97033.91
2018-09-24T12:38:32.283Z,97031.47
2018-09-24T12:41:12.743Z,97029.30
2018-09-24T12:44:00.640Z,97025.47
2018-09-24T12:46:40.376Z,97028.83
2018-09-24T12:49:20.036Z,97027.36
2018-09-24T12:51:59.828Z,97025.02
2018-09-24T12:54:39.736Z,97021.68
2018-09-24T12:57:19.413Z,97025.74
2018-09-24T12:59:59.166Z,97020.74
2018-09-24T13:02:39.352Z,97020.23
2018-09-24T13:05:19.291Z,97018.78
2018-09-24T13:07:59.165Z,97011.80
2018-09-24T13:10:39.416Z,97011.14
2018-09-24T13:13:19.424Z,97006.44
2018-09-24T13:15:59.316Z,97007.13
2018-09-24T13:18:39.197Z,97003.70
2018-09-24T13:21:18.884Z,96999.66
2018-09-24T13:23:59.036Z,96997.03
2018-09-24T13:26:38.711Z,97010.02
2018-09-24T13:29:18.362Z,97008.11
2018-09-24T13:31:58.208Z,97002.23
2018-09-24T13:34:37.980Z,97008.67
2018-09-24T13:37:17.996Z,97017.45
2018-09-24T13:39:58.285Z,97004.19
2018-09-24T13:42:38.164Z,97003.36
2018-09-24T13:45:18.167Z,96998.94
2018-09-24T13:47:58.065Z,96995.23
2018-09-24T13:50:37.713Z,96993.80
2018-09-24T13:53:17.364Z,96994.83
2018-09-24T13:55:57.572Z,97000.58
2018-09-24T13:58:37.480Z,97002.56
2018-09-24T14:01:17.412Z,97003.82
2018-09-24T14:03:57.552Z,97005.21
2018-09-24T14:06:37.748Z,96994.27
2018-09-24T14:09:17.868Z,96990.67
2018-09-24T14:11:57.649Z,96985.55
2018-09-24T14:14:37.741Z,96990.72
2018-09-24T14:17:18.011Z,96987.28
2018-09-24T14:19:57.732Z,96989.77
2018-09-24T14:22:37.667Z,96978.06
2018-09-24T14:25:17.705Z,96983.80
2018-09-24T14:27:57.556Z,96978.92
2018-09-24T14:30:37.959Z,96982.00
2018-09-24T14:33:18.055Z,96984.37
2018-09-24T14:35:57.881Z,96986.11
2018-09-24T14:38:37.599Z,96987.81
2018-09-24T14:41:17.720Z,96980.23
2018-09-24T14:43:57.324Z,96981.31
2018-09-24T14:46:37.484Z,96983.44
2018-09-24T14:49:17.542Z,96989.32
2018-09-24T14:51:57.419Z,96982.54
2018-09-24T14:54:37.220Z,96987.70
2018-09-24T14:57:17.084Z,96984.37
2018-09-24T14:59:57.121Z,96986.69
2018-09-24T15:02:36.854Z,96993.44
2018-09-24T15:05:16.492Z,96983.40
2018-09-24T15:07:56.563Z,96991.25
2018-09-24T15:10:36.437Z,96981.72
2018-09-24T15:13:16.893Z,96986.89
2018-09-24T15:15:56.837Z,96987.78
2018-09-24T15:18:36.531Z,96990.36
2018-09-24T15:21:16.545Z,96986.65
2018-09-24T15:23:56.361Z,96989.80
2018-09-24T15:26:40.920Z,96997.09
2018-09-24T15:29:20.520Z,97002.70
2018-09-24T15:32:00.652Z,97002.09
2018-09-24T15:34:40.433Z,97000.06
2018-09-24T15:37:20.259Z,97002.05
2018-09-24T15:40:00.241Z,96998.48
2018-09-24T15:42:39.971Z,97005.34
2018-09-24T15:45:19.904Z,97001.09
2018-09-24T15:48:00.102Z,97010.69
2018-09-24T15:50:39.996Z,97000.87
2018-09-24T15:53:21.759Z,97010.84
2018-09-24T15:56:01.933Z,97003.01
2018-09-24T15:58:41.621Z,97004.01
2018-09-24T16:01:21.384Z,97005.33
2018-09-24T16:04:01.176Z,97006.80
2018-09-24T16:06:40.915Z,97003.20
2018-09-24T16:09:20.680Z,97009.58
2018-09-24T16:12:01.324Z,97007.91
2018-09-24T16:14:41.336Z,97011.64
2018-09-24T16:17:21.404Z,97018.66
2018-09-24T16:20:01.478Z,97020.08
2018-09-24T16:22:41.999Z,97025.24
2018-09-24T16:25:31.503Z,97026.71
2018-09-24T16:28:11.712Z,97033.03
2018-09-24T16:30:52.040Z,97034.65
2018-09-24T16:33:31.951Z,97026.16
2018-09-24T16:36:11.948Z,97031.31
2018-09-24T16:38:51.828Z,97039.14
2018-09-24T16:41:31.599Z,97039.09
2018-09-24T16:44:12.011Z,97040.69
2018-09-24T16:46:51.820Z,97045.16
2018-09-24T16:49:31.667Z,97047.35
2018-09-24T16:52:11.725Z,97047.90
2018-09-24T16:54:52.119Z,97050.45
2018-09-24T16:57:31.838Z,97056.85
2018-09-24T17:00:11.736Z,97063.43
2018-09-24T17:02:51.628Z,97068.95
2018-09-24T17:05:31.588Z,97069.17
2018-09-24T17:08:12.142Z,97067.59
2018-09-24T17:10:51.808Z,97068.48
2018-09-24T17:13:31.709Z,97079.76
2018-09-24T17:16:11.767Z,97078.20
2018-09-24T17:18:52.085Z,97076.92
2018-09-24T17:21:32.407Z,97077.08
2018-09-24T17:24:13.196Z,97084.68
2018-09-24T17:26:54.248Z,97096.53
2018-09-24T17:29:34.745Z,97100.37
2018-09-24T17:32:15.485Z,97107.84
2018-09-24T17:34:56.268Z,97105.76
2018-09-24T17:37:36.325Z,97105.51
2018-09-24T17:40:23.592Z,97103.92
2018-09-24T17:43:05.560Z,97104.37
2018-09-24T17:45:46.085Z,97111.87
2018-09-24T17:48:25.959Z,97116.15
2018-09-24T17:51:07.094Z,97119.00
2018-09-24T17:54:00.932Z,97119.98
2018-09-24T17:56:40.747Z,97118.09
2018-09-24T17:59:20.636Z,97126.19
2018-09-24T18:02:00.426Z,97133.02
2018-09-24T18:04:40.628Z,97131.00
2018-09-24T18:07:33.376Z,97132.89
2018-09-24T18:10:13.383Z,97138.38
2018-09-24T18:12:53.136Z,97141.27
2018-09-24T18:15:32.844Z,97144.43
2018-09-24T18:18:13.157Z,97145.93
2018-09-24T18:20:52.776Z,97144.15
2018-09-24T18:23:33.020Z,97153.47
2018-09-24T18:26:13.564Z,97153.52
2018-09-24T18:28:53.508Z,97155.39
2018-09-24T18:31:33.511Z,97160.05
2018-09-24T18:34:13.531Z,97160.43
2018-09-24T18:36:53.424Z,97160.52
2018-09-24T18:39:33.212Z,97164.28
2018-09-24T18:42:14.438Z,97165.28
2018-09-24T18:45:05.478Z,97171.50
2018-09-24T18:47:46.867Z,97172.95
2018-09-24T18:50:26.628Z,97175.79
2018-09-24T18:53:08.301Z,97173.06
2018-09-24T18:55:48.059Z,97185.70
2018-09-24T18:58:47.753Z,97179.62
2018-09-24T19:01:27.707Z,97179.11
2018-09-24T19:04:07.411Z,97181.87
2018-09-24T19:06:47.464Z,97185.48
2018-09-24T19:09:27.169Z,97186.44
2018-09-24T19:12:07.088Z,97193.94
2018-09-24T19:14:47.012Z,97188.30
2018-09-24T19:17:26.954Z,97196.22
2018-09-24T19:20:06.767Z,97198.31
2018-09-24T19:22:46.981Z,97201.63
2018-09-24T19:25:26.824Z,97199.34
2018-09-24T19:28:06.751Z,97195.00
2018-09-24T19:30:50.668Z,97204.00
2018-09-24T19:33:30.661Z,97208.02
2018-09-24T19:36:10.775Z,97209.19
2018-09-24T19:38:51.141Z,97211.58
2018-09-24T19:41:30.799Z,97212.75
2018-09-24T19:44:10.533Z,97211.45
2018-09-24T19:46:50.772Z,97221.70
2018-09-24T19:49:30.538Z,97220.31
2018-09-24T19:52:10.959Z,97215.34
2018-09-24T19:54:51.120Z,97217.46
2018-09-24T19:57:31.092Z,97226.66
2018-09-24T20:00:11.158Z,97216.87
2018-09-24T20:02:50.980Z,97225.25
2018-09-24T20:08:38.206Z,97231.17
2018-09-24T20:11:18.402Z,97229.59
2018-09-24T20:14:10.015Z,97230.28
2018-09-24T20:16:50.177Z,97231.83
2018-09-24T20:19:30.457Z,97232.09
2018-09-24T20:22:12.490Z,97231.27
2018-09-24T20:24:52.321Z,97232.22
2018-09-24T20:27:33.120Z,97232.22
2018-09-24T20:30:12.812Z,97231.54
2018-09-24T20:32:52.596Z,97233.66
2018-09-24T20:35:32.479Z,97234.86
2018-09-24T20:38:13.110Z,97236.63
2018-09-24T20:40:53.129Z,97235.02
2018-09-24T20:43:32.839Z,97234.94
2018-09-24T20:46:23.848Z,97242.23
2018-09-24T20:49:03.830Z,97244.01
2018-09-24T20:51:43.739Z,97243.31
2018-09-24T20:54:23.600Z,97246.50
2018-09-24T20:57:03.292Z,97246.98
2018-09-24T20:59:43.204Z,97252.38
2018-09-24T21:02:23.529Z,97256.42
2018-09-24T21:05:03.660Z,97262.55
2018-09-24T21:07:43.596Z,97265.95
2018-09-24T21:10:23.292Z,97266.55
2018-09-24T21:13:03.027Z,97266.80
2018-09-24T21:15:43.080Z,97266.11
2018-09-24T21:18:22.993Z,97265.19
2018-09-24T21:21:03.078Z,97265.21
2018-09-24T21:23:42.819Z,97259.78
2018-09-24T21:26:22.540Z,97264.13
2018-09-24T21:29:02.181Z,97263.56
2018-09-24T21:31:42.616Z,97265.10
2018-09-24T21:34:22.408Z,97264.17
2018-09-24T21:37:02.271Z,97271.00
2018-09-24T21:39:42.158Z,97272.77
2018-09-24T21:42:22.264Z,97275.82
2018-09-24T21:45:01.965Z,97279.11
2018-09-24T21:47:41.969Z,97279.36
2018-09-24T21:50:22.073Z,97278.91
2018-09-24T21:53:01.912Z,97285.59
2018-09-24T21:55:41.700Z,97279.13
2018-09-24T21:58:21.401Z,97284.89
2018-09-24T22:01:01.501Z,97290.08
2018-09-24T22:03:41.390Z,97297.36
2018-09-24T22:06:21.248Z,97295.36
2018-09-24T22:09:00.983Z,97287.95
2018-09-24T22:11:40.975Z,97293.60
2018-09-24T22:14:28.647Z,97295.48
2018-09-24T22:17:08.581Z,97293.25
2018-09-24T22:19:48.788Z,97294.66
2018-09-24T22:22:28.561Z,97294.08
2018-09-24T22:25:09.156Z,97302.08
2018-09-24T22:27:49.269Z,97299.83
2018-09-24T22:30:29.108Z,97299.59
2018-09-24T22:33:09.044Z,97295.96
2018-09-24T22:35:48.848Z,97299.23
2018-09-24T22:38:29.257Z,97300.19
2018-09-24T22:41:09.286Z,97300.77
2018-09-24T22:43:49.231Z,97305.60
2018-09-24T22:46:29.136Z,97300.05
2018-09-24T22:49:09.640Z,97301.34
2018-09-24T22:51:49.840Z,97301.11
2018-09-24T22:54:29.757Z,97299.47
2018-09-24T22:57:10.265Z,97300.41
2018-09-24T22:59:50.580Z,97301.82
2018-09-24T23:02:30.701Z,97295.59
2018-09-24T23:05:10.885Z,97292.07
2018-09-24T23:07:50.801Z,97299.48
2018-09-24T23:10:30.907Z,97305.01
2018-09-24T23:13:11.516Z,97302.51
2018-09-24T23:15:51.360Z,97300.75
2018-09-24T23:18:31.140Z,97300.52
2018-09-24T23:21:11.059Z,97304.75
2018-09-24T23:23:51.165Z,97302.75
2018-09-24T23:26:31.568Z,97301.69
2018-09-24T23:29:11.641Z,97308.95
2018-09-24T23:31:52.000Z,97316.03
2018-09-24T23:34:32.329Z,97314.39
2018-09-24T23:37:12.164Z,97316.03
2018-09-24T23:39:52.096Z,97319.33
2018-09-24T23:42:32.033Z,97322.59
2018-09-24T23:45:12.648Z,97317.30
2018-09-24T23:47:52.908Z,97320.94
2018-09-24T23:50:33.178Z,97322.59
2018-09-24T23:53:13.162Z,97324.23
2018-09-24T23:55:53.222Z,97329.44
2018-09-24T23:58:33.318Z,97326.81
